createdAt,value
2023-02-13T02:50:13.261Z,88.67
2023-02-13T15:20:43.543Z,98.80
2023-02-13T15:22:03.278Z,98.65
2023-02-13T15:23:07.666Z,98.59
2023-02-13T15:24:15.159Z,98.78
2023-02-13T15:25:29.410Z,99.18
2023-02-13T15:26:34.746Z,98.92
2023-02-13T15:27:44.945Z,99.41
2023-02-13T15:29:11.337Z,99.54
2023-02-13T15:30:28.513Z,99.60
2023-02-13T15:31:34.981Z,99.91
2023-02-13T15:32:39.130Z,100.00
2023-02-13T15:33:46.723Z,100.00
2023-02-13T15:34:50.524Z,100.00
2023-02-13T15:36:07.021Z,100.00
2023-02-13T15:37:23.186Z,99.96
2023-02-13T15:39:10.521Z,100.00
2023-02-13T15:40:26.340Z,100.00
2023-02-13T15:41:53.546Z,100.00
2023-02-13T15:43:22.723Z,100.00
2023-02-13T15:44:35.732Z,100.00
2023-02-13T15:45:44.809Z,100.00
2023-02-13T15:46:52.510Z,100.00
2023-02-13T15:47:59.451Z,100.00
2023-02-13T15:49:19.756Z,100.00
2023-02-13T15:50:31.385Z,100.00
2023-02-13T15:51:36.172Z,100.00
2023-02-13T15:52:45.983Z,100.00
2023-02-13T15:54:02.122Z,100.00
2023-02-13T15:55:06.399Z,100.00
2023-02-13T15:56:15.409Z,100.00
2023-02-13T15:57:21.299Z,100.00
2023-02-13T15:58:34.420Z,100.00
2023-02-13T15:59:40.034Z,100.00
2023-02-13T16:00:46.153Z,100.00
2023-02-13T16:01:51.973Z,100.00
2023-02-13T16:02:59.949Z,100.00
2023-02-13T16:04:09.142Z,100.00
2023-02-13T16:05:19.953Z,100.00
2023-02-13T16:06:28.068Z,100.00
2023-02-13T16:07:57.770Z,100.00
2023-02-13T16:09:03.355Z,100.00
2023-02-13T16:10:33.218Z,100.00
2023-02-13T16:11:42.311Z,100.00
2023-02-13T16:12:49.428Z,100.00
2023-02-13T16:14:21.233Z,100.00
2023-02-13T16:15:32.175Z,100.00
2023-02-13T16:17:07.461Z,100.00
2023-02-13T16:18:21.240Z,100.00
2023-02-13T16:19:42.803Z,100.00
2023-02-13T16:20:53.163Z,100.00
2023-02-13T16:22:02.206Z,100.00
2023-02-13T16:23:20.305Z,100.00
2023-02-13T16:24:28.388Z,99.64
2023-02-13T16:25:38.667Z,99.70
2023-02-13T16:26:45.197Z,99.59
2023-02-13T16:28:02.846Z,99.61
2023-02-13T16:29:19.882Z,99.04
2023-02-13T16:30:46.735Z,99.18
2023-02-13T16:31:54.284Z,98.81
2023-02-13T16:33:41.700Z,98.89
2023-02-13T16:34:46.165Z,98.84
2023-02-13T16:36:18.981Z,98.73
2023-02-13T16:37:34.427Z,98.29
2023-02-13T16:38:51.742Z,98.08
2023-02-13T16:39:55.720Z,98.46
2023-02-13T16:41:19.322Z,98.47
2023-02-13T16:42:26.719Z,98.63
2023-02-13T16:43:58.560Z,98.24
2023-02-13T16:45:25.796Z,98.34
2023-02-13T16:46:39.676Z,98.71
2023-02-13T16:47:43.325Z,98.43
2023-02-13T16:49:01.576Z,98.43
2023-02-13T16:50:05.664Z,98.39
2023-02-13T16:51:09.858Z,98.24
2023-02-13T16:52:27.465Z,98.59
2023-02-13T16:53:34.200Z,98.67
2023-02-13T16:54:52.430Z,98.58
2023-02-13T16:56:07.120Z,99.01
2023-02-13T16:57:14.286Z,98.59
2023-02-13T16:58:18.863Z,98.77
2023-02-13T16:59:30.472Z,99.05
2023-02-13T17:00:34.425Z,99.00
2023-02-13T17:01:38.376Z,98.90
2023-02-13T17:02:42.465Z,98.93
2023-02-13T17:03:47.925Z,98.01
2023-02-13T17:04:58.527Z,98.08
2023-02-13T17:06:05.845Z,98.01
2023-02-13T17:07:22.420Z,98.06
2023-02-13T17:08:27.411Z,98.73
2023-02-13T17:09:31.468Z,98.31
2023-02-13T17:10:38.997Z,97.96
2023-02-13T17:11:42.767Z,98.00
2023-02-13T17:12:47.576Z,97.98
2023-02-13T17:13:51.322Z,97.91
2023-02-13T17:14:58.527Z,97.69
2023-02-13T17:16:02.278Z,97.49
2023-02-13T17:17:20.581Z,97.70
2023-02-13T17:18:24.250Z,97.58
2023-02-13T17:19:29.522Z,97.32
2023-02-13T17:20:35.559Z,97.00
2023-02-13T17:21:40.439Z,96.65
2023-02-13T17:22:49.127Z,96.43
2023-02-13T17:23:52.912Z,96.37
2023-02-13T17:24:58.778Z,96.21
2023-02-13T17:26:02.603Z,95.93
2023-02-13T17:27:06.279Z,96.17
2023-02-13T17:28:24.420Z,96.53
2023-02-13T17:29:28.104Z,96.84
2023-02-13T17:30:40.556Z,96.38
2023-02-13T17:31:46.689Z,96.41
2023-02-13T17:32:55.871Z,96.30
2023-02-13T17:33:59.609Z,96.71
2023-02-13T17:35:03.402Z,96.55
2023-02-13T17:36:09.744Z,96.40
2023-02-13T17:37:26.515Z,96.58
2023-02-13T17:38:30.351Z,96.62
2023-02-13T17:39:33.994Z,96.53
2023-02-13T17:40:38.191Z,96.70
2023-02-13T17:41:43.061Z,97.08
2023-02-13T17:42:51.339Z,96.81
2023-02-13T17:43:55.509Z,96.51
2023-02-13T17:44:59.662Z,96.52
2023-02-13T17:46:04.599Z,96.27
2023-02-13T17:47:08.766Z,96.53
2023-02-13T17:48:12.867Z,96.71
2023-02-13T17:49:16.550Z,97.02
2023-02-13T17:50:21.052Z,97.08
2023-02-13T17:51:24.730Z,96.73
2023-02-13T17:52:30.862Z,96.77
2023-02-13T17:53:37.077Z,97.22
2023-02-13T17:54:44.506Z,97.25
2023-02-13T17:55:48.507Z,96.90
2023-02-13T17:56:52.677Z,96.75
2023-02-13T17:57:58.429Z,96.55
2023-02-13T17:59:15.722Z,96.53
2023-02-13T18:00:21.532Z,96.58
2023-02-13T18:01:25.261Z,96.63
2023-02-13T18:02:29.131Z,97.01
2023-02-13T18:03:32.996Z,96.78
2023-02-13T18:04:37.188Z,96.61
2023-02-13T18:05:41.682Z,96.56
2023-02-13T18:06:46.704Z,96.63
2023-02-13T18:07:50.352Z,96.15
2023-02-13T18:08:54.396Z,95.86
2023-02-13T18:09:58.105Z,95.83
2023-02-13T18:11:13.247Z,95.79
2023-02-13T18:12:23.325Z,95.69
2023-02-13T18:13:27.481Z,96.19
2023-02-13T18:14:35.564Z,95.56
2023-02-13T18:15:48.251Z,95.83
2023-02-13T18:16:52.177Z,95.25
2023-02-13T18:17:59.457Z,95.54
2023-02-13T18:19:03.467Z,95.52
2023-02-13T18:20:20.015Z,95.08
2023-02-13T18:21:24.475Z,95.32
2023-02-13T18:22:29.835Z,95.11
2023-02-13T18:23:33.874Z,95.04
2023-02-13T18:24:42.562Z,94.67
2023-02-13T18:25:48.543Z,94.39
2023-02-13T18:26:54.014Z,94.82
2023-02-13T18:27:59.374Z,94.57
2023-02-13T18:29:03.466Z,94.31
2023-02-13T18:30:27.442Z,94.61
2023-02-13T18:31:32.570Z,94.22
2023-02-13T18:32:36.846Z,94.06
2023-02-13T18:33:40.784Z,93.84
2023-02-13T18:34:46.688Z,93.60
2023-02-13T18:35:50.333Z,93.98
2023-02-13T18:36:57.497Z,93.97
2023-02-13T18:38:01.138Z,94.01
2023-02-13T18:39:08.445Z,93.53
2023-02-13T18:40:15.065Z,93.39
2023-02-13T18:41:20.071Z,93.25
2023-02-13T18:42:27.191Z,93.44
2023-02-13T18:43:31.613Z,93.56
2023-02-13T18:44:35.762Z,94.03
2023-02-13T18:45:39.566Z,93.68
2023-02-13T18:46:52.165Z,93.67
2023-02-13T18:47:56.037Z,93.73
2023-02-13T18:48:59.861Z,93.79
2023-02-13T18:50:08.727Z,93.67
2023-02-13T18:51:12.771Z,93.85
2023-02-13T18:52:17.737Z,93.94
2023-02-13T18:53:22.067Z,94.02
2023-02-13T18:54:25.768Z,93.94
2023-02-13T18:55:29.638Z,93.91
2023-02-13T18:56:33.944Z,93.55
2023-02-13T18:57:37.606Z,93.70
2023-02-13T18:58:41.868Z,93.73
2023-02-13T18:59:46.332Z,93.44
2023-02-13T19:00:50.231Z,93.31
2023-02-13T19:01:53.936Z,93.31
2023-02-13T19:02:59.419Z,93.19
2023-02-13T19:04:10.010Z,93.56
2023-02-13T19:05:13.652Z,93.18
2023-02-13T19:06:23.448Z,93.29
2023-02-13T19:07:27.818Z,92.95
2023-02-13T19:08:31.800Z,92.72
2023-02-13T19:09:40.524Z,92.69
2023-02-13T19:10:44.665Z,93.09
2023-02-13T19:11:49.040Z,92.77
2023-02-13T19:12:55.535Z,92.59
2023-02-13T19:14:01.288Z,92.18
2023-02-13T19:15:10.171Z,92.41
2023-02-13T19:16:18.030Z,92.15
2023-02-13T19:17:22.961Z,91.88
2023-02-13T19:18:26.877Z,92.30
2023-02-13T19:19:30.514Z,92.18
2023-02-13T19:20:34.364Z,92.41
2023-02-13T19:21:48.555Z,92.67
2023-02-13T19:22:52.355Z,92.49
2023-02-13T19:23:56.483Z,92.05
2023-02-13T19:25:01.727Z,91.74
2023-02-13T19:26:20.460Z,91.43
2023-02-13T19:27:24.239Z,91.33
2023-02-13T19:28:27.824Z,91.63
2023-02-13T19:29:32.389Z,91.59
2023-02-13T19:30:36.515Z,91.56
2023-02-13T19:31:41.638Z,91.19
2023-02-13T19:32:46.472Z,91.45
2023-02-13T19:33:52.779Z,91.55
2023-02-13T19:35:00.562Z,91.75
2023-02-13T19:36:13.877Z,91.95
2023-02-13T19:37:17.739Z,91.63
2023-02-13T19:38:25.010Z,91.33
2023-02-13T19:39:29.999Z,91.26
2023-02-13T19:40:35.372Z,91.35
2023-02-13T19:41:40.969Z,91.06
2023-02-13T19:42:45.438Z,90.79
2023-02-13T19:43:53.882Z,91.30
2023-02-13T19:45:00.846Z,90.67
2023-02-13T19:46:13.197Z,89.75
2023-02-13T19:47:17.660Z,89.73
2023-02-13T19:48:21.501Z,90.02
2023-02-13T19:49:25.629Z,89.73
2023-02-13T19:50:29.383Z,89.38
2023-02-13T19:51:35.051Z,89.54
2023-02-13T19:52:39.189Z,89.50
2023-02-13T19:53:45.761Z,89.56
2023-02-13T19:54:51.392Z,89.57
2023-02-13T19:56:04.391Z,89.74
2023-02-13T19:57:14.891Z,89.45
2023-02-13T19:58:22.469Z,89.72
2023-02-13T19:59:33.124Z,89.61
2023-02-13T20:00:40.225Z,89.53
2023-02-13T20:01:44.449Z,88.83
2023-02-13T20:02:48.417Z,89.26
2023-02-13T20:03:53.619Z,88.96
2023-02-13T20:04:58.346Z,88.96
2023-02-13T20:06:09.591Z,89.36
2023-02-13T20:07:14.417Z,89.53
2023-02-13T20:08:18.626Z,89.47
2023-02-13T20:09:22.336Z,89.50
2023-02-13T20:10:28.486Z,89.80
2023-02-13T20:11:32.423Z,89.49
2023-02-13T20:12:37.073Z,89.09
2023-02-13T20:13:41.427Z,89.35
2023-02-13T20:14:46.144Z,89.04
2023-02-13T20:15:50.554Z,89.07
2023-02-13T20:16:54.821Z,88.89
2023-02-13T20:17:58.846Z,88.90
2023-02-13T20:19:07.668Z,88.62
2023-02-13T20:20:12.562Z,88.29
2023-02-13T20:21:19.529Z,88.37
2023-02-13T20:22:23.792Z,88.19
2023-02-13T20:23:27.730Z,88.33
2023-02-13T20:24:33.131Z,88.00
2023-02-13T20:25:41.668Z,88.18
2023-02-13T20:26:46.831Z,88.09
2023-02-13T20:27:53.760Z,88.24
2023-02-13T20:28:59.828Z,88.25
2023-02-13T20:30:07.813Z,87.69
2023-02-13T20:31:22.057Z,87.71
2023-02-13T20:32:27.370Z,87.88
2023-02-13T20:33:31.115Z,87.82
2023-02-13T20:34:44.280Z,87.64
2023-02-13T20:35:58.983Z,87.53
2023-02-13T20:37:02.980Z,87.42
2023-02-13T20:38:09.197Z,87.84
2023-02-13T20:39:13.460Z,87.89
2023-02-13T20:40:18.539Z,87.80
2023-02-13T20:41:26.202Z,87.86
2023-02-13T20:42:34.208Z,87.93
2023-02-13T20:43:38.896Z,88.30
2023-02-13T20:44:45.386Z,88.33
2023-02-13T20:45:49.213Z,88.39
2023-02-13T20:46:53.247Z,87.93
2023-02-13T20:47:56.938Z,88.17
2023-02-13T20:49:01.486Z,88.13
2023-02-13T20:50:08.779Z,88.14
2023-02-13T20:51:16.273Z,87.98
2023-02-13T20:52:21.142Z,88.57
2023-02-13T20:53:25.552Z,88.86
2023-02-13T20:54:29.477Z,88.98
2023-02-13T20:55:33.276Z,88.69
2023-02-13T20:56:37.231Z,88.60
2023-02-13T20:57:41.086Z,88.89
2023-02-13T20:58:48.056Z,88.72
2023-02-13T20:59:51.891Z,88.45
2023-02-13T21:00:59.869Z,88.72
2023-02-13T21:02:03.831Z,88.21
2023-02-13T21:03:15.711Z,88.34
2023-02-13T21:04:20.722Z,88.65
2023-02-13T21:05:25.049Z,88.53
2023-02-13T21:06:37.737Z,88.82
2023-02-13T21:07:41.697Z,88.67
2023-02-13T21:08:48.569Z,89.01
2023-02-13T21:09:52.384Z,88.93
2023-02-13T21:11:08.410Z,88.94
2023-02-13T21:12:13.778Z,89.14
2023-02-13T21:13:18.078Z,89.49
2023-02-13T21:14:21.841Z,88.99
2023-02-13T21:15:25.470Z,88.95
2023-02-13T21:16:34.437Z,89.45
2023-02-13T21:17:39.103Z,89.10
2023-02-13T21:18:47.211Z,89.50
2023-02-13T21:19:50.959Z,89.42
2023-02-13T21:20:55.264Z,89.87
2023-02-13T21:22:12.214Z,89.55
2023-02-13T21:23:16.656Z,90.19
2023-02-13T21:24:23.436Z,90.24
2023-02-13T21:25:27.291Z,90.05
2023-02-13T21:26:31.767Z,90.20
2023-02-13T21:27:35.497Z,89.93
2023-02-13T21:28:42.429Z,90.31
2023-02-13T21:29:49.330Z,90.56
2023-02-13T21:30:53.294Z,90.28
2023-02-13T21:31:57.602Z,90.44
2023-02-13T21:33:01.576Z,90.20
2023-02-13T21:34:10.473Z,90.10
2023-02-13T21:35:17.237Z,89.84
2023-02-13T21:36:21.017Z,90.05
2023-02-13T21:37:25.387Z,90.31
2023-02-13T21:38:30.003Z,89.93
2023-02-13T21:39:34.032Z,90.40
2023-02-13T21:40:38.072Z,90.31
2023-02-13T21:41:45.360Z,90.80
2023-02-13T21:42:52.975Z,90.42
2023-02-13T21:43:57.120Z,90.36
2023-02-13T21:45:13.157Z,90.32
2023-02-13T21:46:28.041Z,90.45
2023-02-13T21:47:32.009Z,90.94
2023-02-13T21:48:36.176Z,91.25
2023-02-13T21:49:40.283Z,91.21
2023-02-13T21:50:47.622Z,90.69
2023-02-13T21:51:51.754Z,90.71
2023-02-13T21:52:55.486Z,90.99
2023-02-13T21:54:01.028Z,91.08
2023-02-13T21:55:07.918Z,91.08
2023-02-13T21:56:17.136Z,91.10
2023-02-13T21:57:21.155Z,90.97
2023-02-13T21:58:38.112Z,90.63
2023-02-13T21:59:41.721Z,90.83
2023-02-13T22:00:45.856Z,90.83
2023-02-13T22:01:51.359Z,91.30
2023-02-13T22:02:55.346Z,91.04
2023-02-13T22:04:03.755Z,91.22
2023-02-13T22:05:10.536Z,90.66
2023-02-13T22:06:16.927Z,91.14
2023-02-13T22:07:21.504Z,91.05
2023-02-13T22:08:25.267Z,90.85
2023-02-13T22:09:29.229Z,91.21
2023-02-13T22:10:32.921Z,91.06
2023-02-13T22:11:38.217Z,91.69
2023-02-13T22:12:42.384Z,91.64
2023-02-13T22:13:47.093Z,91.93
2023-02-13T22:14:50.804Z,91.58
2023-02-13T22:16:09.817Z,91.85
2023-02-13T22:17:13.859Z,91.96
2023-02-13T22:18:17.485Z,91.81
2023-02-13T22:19:24.325Z,92.21
2023-02-13T22:20:28.986Z,92.28
2023-02-13T22:21:35.238Z,92.24
2023-02-13T22:22:38.996Z,92.60
2023-02-13T22:23:45.616Z,91.99
2023-02-13T22:24:49.532Z,92.32
2023-02-13T22:25:53.702Z,92.07
2023-02-13T22:26:57.511Z,92.36
2023-02-13T22:28:01.571Z,93.04
2023-02-13T22:29:12.688Z,93.00
2023-02-13T22:30:16.672Z,92.50
2023-02-13T22:31:25.262Z,92.64
2023-02-13T22:32:38.947Z,92.83
2023-02-13T22:33:45.641Z,92.67
2023-02-13T22:34:54.108Z,92.26
2023-02-13T22:35:58.030Z,96.41
2023-02-13T22:37:02.192Z,96.55
2023-02-13T22:38:10.040Z,95.72
2023-02-13T22:39:13.867Z,94.38
2023-02-13T22:40:19.551Z,93.78
2023-02-13T22:41:28.676Z,93.02
2023-02-13T22:42:32.624Z,92.31
2023-02-13T22:43:38.239Z,91.50
2023-02-13T22:44:42.174Z,91.43
2023-02-13T22:45:46.592Z,90.93
2023-02-13T22:46:50.483Z,90.65
2023-02-13T22:47:54.295Z,90.52
2023-02-13T22:48:59.353Z,91.13
2023-02-13T22:50:03.362Z,90.65
2023-02-13T22:51:11.426Z,90.41
2023-02-13T22:52:15.318Z,90.46
2023-02-13T22:53:19.287Z,90.38
2023-02-13T22:54:23.428Z,90.23
2023-02-13T22:55:27.534Z,90.23
2023-02-13T22:56:32.341Z,90.09
2023-02-13T22:57:36.165Z,90.28
2023-02-13T22:58:40.301Z,89.68
2023-02-13T22:59:44.956Z,90.00
2023-02-13T23:00:48.732Z,89.85
2023-02-13T23:01:52.445Z,89.81
2023-02-13T23:02:56.288Z,89.71
2023-02-13T23:04:00.308Z,89.59
2023-02-13T23:05:04.804Z,89.38
2023-02-13T23:06:12.574Z,89.86
2023-02-13T23:07:18.478Z,89.71
2023-02-13T23:08:22.802Z,89.36
2023-02-13T23:09:26.750Z,89.61
2023-02-13T23:10:30.651Z,89.13
2023-02-13T23:11:53.644Z,89.70
2023-02-13T23:12:57.345Z,90.11
2023-02-13T23:14:04.542Z,89.85
2023-02-13T23:15:16.239Z,89.68
2023-02-13T23:16:20.289Z,89.78
2023-02-13T23:17:44.396Z,89.68
2023-02-13T23:18:58.943Z,89.45
2023-02-13T23:20:03.086Z,89.59
2023-02-13T23:21:10.139Z,89.78
2023-02-13T23:22:13.952Z,89.79
2023-02-13T23:23:17.609Z,89.88
2023-02-13T23:24:21.562Z,89.82
2023-02-13T23:25:25.436Z,90.26
2023-02-13T23:26:29.672Z,90.24
2023-02-13T23:27:35.958Z,90.38
2023-02-13T23:28:39.796Z,90.59
2023-02-13T23:29:43.735Z,90.60
2023-02-13T23:30:47.930Z,90.76
2023-02-13T23:31:51.715Z,90.59
2023-02-13T23:32:57.108Z,90.70
2023-02-13T23:34:00.725Z,90.38
2023-02-13T23:35:15.164Z,90.71
2023-02-13T23:36:19.102Z,90.86
2023-02-13T23:37:23.571Z,91.05
2023-02-13T23:38:27.468Z,91.17
2023-02-13T23:39:31.035Z,91.00
2023-02-13T23:40:34.691Z,90.59
2023-02-13T23:41:38.806Z,91.02
2023-02-13T23:42:43.526Z,91.02
2023-02-13T23:43:47.456Z,91.29
2023-02-13T23:44:52.015Z,91.19
2023-02-13T23:45:55.898Z,91.11
2023-02-13T23:46:59.710Z,91.04
2023-02-13T23:48:03.692Z,91.00
2023-02-13T23:49:11.098Z,90.83
2023-02-13T23:50:15.010Z,91.16
2023-02-13T23:51:18.981Z,91.01
2023-02-13T23:52:23.599Z,91.18
2023-02-13T23:53:28.114Z,90.88
2023-02-13T23:54:32.011Z,91.10
2023-02-13T23:55:36.041Z,91.43
2023-02-13T23:56:39.931Z,91.12
2023-02-13T23:57:44.494Z,91.28
2023-02-13T23:58:48.322Z,90.87
2023-02-13T23:59:52.576Z,91.37
